Time;durP1;ratioP1;P1;durP2;ratioP2;P2;SDS_P1;SDS_P2;PMS_P1;PMS_P2;Temp;Humidity;BMP_temperature;BMP_pressure;BME280_temperature;BME280_humidity;BME280_pressure;Samples;Min_cycle;Max_cycle;Signal;HPM_P1;HPM_P2
2021/09/05 00:02:24;;;;;;;8.67;5.60;;;;;;;;;;5073708;28;20219;-76
2021/09/05 00:05:29;;;;;;;7.47;5.83;;;;;;;;;;5050730;28;20187;-76
2021/09/05 00:08:33;;;;;;;6.07;5.23;;;;;;;;;;5063087;28;20199;-76
2021/09/05 00:11:38;;;;;;;9.17;5.80;;;;;;;;;;5075167;28;20216;-76
2021/09/05 00:14:42;;;;;;;7.87;5.90;;;;;;;;;;5074743;28;20180;-76
2021/09/05 00:17:46;;;;;;;7.70;5.70;;;;;;;;;;5074696;28;20203;-76
2021/09/05 00:20:49;;;;;;;7.33;5.83;;;;;;;;;;5075081;28;20215;-76
2021/09/05 00:23:54;;;;;;;7.80;5.97;;;;;;;;;;5065533;28;20175;-76
2021/09/05 00:26:58;;;;;;;8.00;5.47;;;;;;;;;;5057585;28;20187;-75
2021/09/05 00:30:02;;;;;;;7.67;5.90;;;;;;;;;;5062247;28;20570;-76
2021/09/05 00:33:07;;;;;;;7.93;5.57;;;;;;;;;;5061998;28;20195;-76
2021/09/05 00:36:12;;;;;;;7.33;6.03;;;;;;;;;;5062560;28;20207;-75
2021/09/05 00:39:16;;;;;;;7.73;6.07;;;;;;;;;;5061954;28;20199;-76
2021/09/05 00:42:25;;;;;;;10.00;5.67;;;;;;;;;;5074483;28;20215;-76
2021/09/05 00:45:29;;;;;;;6.77;5.60;;;;;;;;;;5062261;28;20188;-75
2021/09/05 00:48:33;;;;;;;6.70;5.87;;;;;;;;;;5074105;28;20191;-76
2021/09/05 00:51:39;;;;;;;7.63;6.17;;;;;;;;;;5061979;28;20215;-76
2021/09/05 00:54:48;;;;;;;11.10;6.17;;;;;;;;;;5061619;28;20646;-76
2021/09/05 00:57:52;;;;;;;8.70;6.33;;;;;;;;;;5073851;28;20199;-76
2021/09/05 01:00:58;;;;;;;8.47;6.53;;;;;;;;;;5054341;28;20552;-76
2021/09/05 01:04:06;;;;;;;7.43;6.03;;;;;;;;;;5048130;28;20183;-75
2021/09/05 01:07:11;;;;;;;7.57;6.33;;;;;;;;;;5030840;28;20189;-76
2021/09/05 01:10:16;;;;;;;6.97;5.83;;;;;;;;;;5035999;28;20215;-75
2021/09/05 01:13:20;;;;;;;8.50;5.97;;;;;;;;;;5074190;28;20171;-75
2021/09/05 01:16:26;;;;;;;6.40;5.70;;;;;;;;;;5073654;28;20191;-75
2021/09/05 01:19:35;;;;;;;10.60;5.67;;;;;;;;;;5061326;28;20199;-75
2021/09/05 01:22:57;;;;;;;7.43;5.77;;;;;;;;;;5052425;28;20179;-76
2021/09/05 01:26:21;;;;;;;9.00;5.97;;;;;;;;;;5053633;28;20635;-76
2021/09/05 01:29:48;;;;;;;9.43;6.00;;;;;;;;;;5055282;28;20224;-75
2021/09/05 01:33:14;;;;;;;8.67;5.37;;;;;;;;;;5074090;28;20548;-76
2021/09/05 01:36:40;;;;;;;10.03;5.97;;;;;;;;;;5043488;28;20207;-75
2021/09/05 01:40:03;;;;;;;7.63;6.03;;;;;;;;;;5071179;28;20199;-76
2021/09/05 01:43:27;;;;;;;7.97;5.67;;;;;;;;;;5073775;28;20188;-76
2021/09/05 01:46:50;;;;;;;10.23;5.60;;;;;;;;;;5073674;28;20520;-76
2021/09/05 01:50:15;;;;;;;10.03;6.07;;;;;;;;;;5038831;28;20224;-76
2021/09/05 01:53:35;;;;;;;8.40;5.93;;;;;;;;;;5043257;28;20181;-76
2021/09/05 01:57:03;;;;;;;9.10;7.30;;;;;;;;;;5057008;28;20219;-76
2021/09/05 02:00:27;;;;;;;11.30;7.30;;;;;;;;;;5053624;28;20195;-75
2021/09/05 02:03:43;;;;;;;9.47;7.83;;;;;;;;;;5060900;28;20195;-75
2021/09/05 02:07:24;;;;;;;9.60;7.40;;;;;;;;;;5061588;28;20499;-76
2021/09/05 02:10:50;;;;;;;9.27;7.40;;;;;;;;;;5060901;28;20575;-75
2021/09/05 02:14:12;;;;;;;8.87;7.30;;;;;;;;;;5073517;28;20191;-75
2021/09/05 02:17:50;;;;;;;8.07;6.33;;;;;;;;;;5065012;28;20207;-76
2021/09/05 02:21:03;;;;;;;8.50;6.80;;;;;;;;;;5067508;28;20222;-75
2021/09/05 02:24:22;;;;;;;10.10;7.10;;;;;;;;;;5061453;28;20199;-76
2021/09/05 02:27:44;;;;;;;9.03;6.93;;;;;;;;;;5072794;28;20179;-76
2021/09/05 02:31:05;;;;;;;9.10;7.20;;;;;;;;;;5060624;28;20690;-76
2021/09/05 02:34:29;;;;;;;8.27;6.03;;;;;;;;;;5072732;28;20210;-76
2021/09/05 02:37:51;;;;;;;8.07;5.80;;;;;;;;;;5073736;28;20192;-75
2021/09/05 02:41:06;;;;;;;7.43;5.83;;;;;;;;;;5064440;28;20219;-76
2021/09/05 02:44:37;;;;;;;7.80;5.77;;;;;;;;;;5052316;28;20520;-76
2021/09/05 02:48:00;;;;;;;9.07;5.97;;;;;;;;;;5068373;28;20184;-76
2021/09/05 02:51:24;;;;;;;8.10;5.60;;;;;;;;;;5061086;28;20709;-76
2021/09/05 02:54:52;;;;;;;7.10;6.00;;;;;;;;;;5068574;28;20184;-76
2021/09/05 02:58:16;;;;;;;7.90;6.20;;;;;;;;;;5064641;28;20535;-75
2021/09/05 03:01:50;;;;;;;6.87;5.63;;;;;;;;;;5056285;28;20216;-75
2021/09/05 03:04:54;;;;;;;8.07;5.17;;;;;;;;;;5056374;28;20180;-75
2021/09/05 03:08:19;;;;;;;7.83;5.93;;;;;;;;;;5076604;28;20646;-76
2021/09/05 03:11:39;;;;;;;12.17;6.37;;;;;;;;;;5051866;28;20689;-75
2021/09/05 03:15:02;;;;;;;8.63;6.07;;;;;;;;;;5076036;28;20195;-75
2021/09/05 03:18:21;;;;;;;8.27;6.17;;;;;;;;;;5063845;28;20175;-75
2021/09/05 03:21:46;;;;;;;8.97;6.53;;;;;;;;;;5086448;28;20215;-75
2021/09/05 03:25:11;;;;;;;8.30;6.10;;;;;;;;;;5075935;28;20183;-75
2021/09/05 03:28:44;;;;;;;8.60;6.17;;;;;;;;;;5075885;28;20191;-76
2021/09/05 03:32:18;;;;;;;11.93;6.23;;;;;;;;;;5036864;28;20226;-75
2021/09/05 03:35:44;;;;;;;7.63;6.00;;;;;;;;;;5075046;28;20187;-75
2021/09/05 03:39:07;;;;;;;8.27;5.33;;;;;;;;;;5056045;28;20192;-75
2021/09/05 03:42:26;;;;;;;9.43;6.40;;;;;;;;;;5064058;28;20211;-75
2021/09/05 03:45:54;;;;;;;7.93;6.00;;;;;;;;;;5063062;28;20192;-75
2021/09/05 03:49:16;;;;;;;9.43;6.13;;;;;;;;;;5051966;28;20192;-75
2021/09/05 03:52:25;;;;;;;6.70;5.30;;;;;;;;;;5051942;28;20235;-75
2021/09/05 03:55:32;;;;;;;7.07;5.27;;;;;;;;;;5051862;28;20203;-74
2021/09/05 03:58:38;;;;;;;6.93;5.70;;;;;;;;;;5054885;28;20643;-75
2021/09/05 04:01:42;;;;;;;7.57;5.83;;;;;;;;;;5060074;28;20211;-75
2021/09/05 04:04:51;;;;;;;8.37;5.90;;;;;;;;;;5052632;28;20179;-76
2021/09/05 04:11:08;;;;;;;7.77;5.73;;;;;;;;;;5054178;28;20705;-75
2021/09/05 04:14:12;;;;;;;11.80;5.73;;;;;;;;;;5075119;28;20638;-75
2021/09/05 04:17:17;;;;;;;7.93;6.07;;;;;;;;;;5074472;28;20195;-75
2021/09/05 04:20:21;;;;;;;8.27;6.57;;;;;;;;;;5074943;28;20175;-75
2021/09/05 04:23:26;;;;;;;7.13;6.13;;;;;;;;;;5062769;28;20642;-75
2021/09/05 04:26:30;;;;;;;7.87;6.27;;;;;;;;;;5074584;28;20196;-75
2021/09/05 04:29:34;;;;;;;10.77;6.73;;;;;;;;;;5062813;28;20188;-75
2021/09/05 04:32:40;;;;;;;7.50;6.10;;;;;;;;;;5074783;28;20548;-75
2021/09/05 04:35:44;;;;;;;8.40;6.07;;;;;;;;;;5074958;28;20195;-75
2021/09/05 04:38:48;;;;;;;10.40;6.77;;;;;;;;;;5074344;28;20211;-75
2021/09/05 04:41:53;;;;;;;7.93;6.47;;;;;;;;;;5074239;28;20223;-75
2021/09/05 04:44:57;;;;;;;8.67;6.70;;;;;;;;;;5074446;28;20535;-75
2021/09/05 04:48:01;;;;;;;8.37;6.70;;;;;;;;;;5074137;28;20666;-75
2021/09/05 04:51:07;;;;;;;13.77;8.00;;;;;;;;;;5073989;28;20690;-75
2021/09/05 04:54:10;;;;;;;9.30;7.00;;;;;;;;;;5074532;28;20180;-75
2021/09/05 04:57:14;;;;;;;7.80;5.97;;;;;;;;;;5061330;28;20191;-75
2021/09/05 05:00:19;;;;;;;10.13;7.10;;;;;;;;;;5073863;28;20183;-74
2021/09/05 05:03:22;;;;;;;8.97;7.00;;;;;;;;;;5073803;28;20195;-75
2021/09/05 05:06:26;;;;;;;8.90;6.77;;;;;;;;;;5073759;28;20203;-75
2021/09/05 05:09:31;;;;;;;10.43;7.03;;;;;;;;;;5071736;28;20734;-75
2021/09/05 05:12:35;;;;;;;9.77;7.03;;;;;;;;;;5070307;28;20230;-75
2021/09/05 05:15:39;;;;;;;9.33;6.57;;;;;;;;;;5038150;28;20184;-75
2021/09/05 05:18:43;;;;;;;7.50;6.20;;;;;;;;;;5050090;28;20183;-75
2021/09/05 05:21:47;;;;;;;6.93;6.17;;;;;;;;;;5049620;28;20707;-74
2021/09/05 05:24:52;;;;;;;9.53;6.83;;;;;;;;;;5049997;28;20544;-75
2021/09/05 05:27:56;;;;;;;10.90;6.83;;;;;;;;;;5060992;28;20187;-75
2021/09/05 05:31:00;;;;;;;6.97;5.87;;;;;;;;;;5069753;28;20218;-74
2021/09/05 05:34:04;;;;;;;9.10;6.37;;;;;;;;;;5069418;28;20665;-75
2021/09/05 05:37:08;;;;;;;7.73;5.87;;;;;;;;;;5069526;28;20191;-75
2021/09/05 05:40:13;;;;;;;8.47;6.77;;;;;;;;;;5069167;28;20191;-74
2021/09/05 05:43:17;;;;;;;7.90;6.00;;;;;;;;;;5069700;28;20661;-76
2021/09/05 05:46:21;;;;;;;7.47;5.90;;;;;;;;;;5069514;28;20183;-75
2021/09/05 05:49:25;;;;;;;11.40;6.80;;;;;;;;;;5069623;28;20183;-76
2021/09/05 05:52:29;;;;;;;9.87;6.23;;;;;;;;;;5057062;28;20223;-76
2021/09/05 05:55:33;;;;;;;11.30;7.07;;;;;;;;;;5056854;28;20207;-76
2021/09/05 05:58:38;;;;;;;8.40;6.50;;;;;;;;;;5049293;28;20192;-75
2021/09/05 06:01:42;;;;;;;8.90;6.10;;;;;;;;;;5078212;28;20231;-76
2021/09/05 06:04:46;;;;;;;9.30;6.90;;;;;;;;;;5087298;28;20202;-75
2021/09/05 06:07:51;;;;;;;14.93;7.40;;;;;;;;;;5037231;28;20208;-75
2021/09/05 06:10:55;;;;;;;10.93;6.80;;;;;;;;;;5048957;28;20223;-75
2021/09/05 06:14:00;;;;;;;10.90;6.90;;;;;;;;;;5071916;28;20195;-75
2021/09/05 06:17:04;;;;;;;17.23;10.13;;;;;;;;;;5086082;28;20210;-75
2021/09/05 06:20:08;;;;;;;25.60;12.27;;;;;;;;;;5075243;28;20646;-75
2021/09/05 06:23:13;;;;;;;19.27;12.17;;;;;;;;;;5073087;28;20182;-75
2021/09/05 06:26:17;;;;;;;22.13;13.10;;;;;;;;;;5061060;28;20191;-75
2021/09/05 06:29:21;;;;;;;22.17;12.53;;;;;;;;;;5053276;28;20211;-75
2021/09/05 06:32:25;;;;;;;20.37;13.47;;;;;;;;;;5070851;28;20229;-75
2021/09/05 06:35:30;;;;;;;19.73;12.07;;;;;;;;;;5073036;28;20630;-75
2021/09/05 06:38:34;;;;;;;15.50;11.63;;;;;;;;;;5073040;28;20210;-75
2021/09/05 06:41:38;;;;;;;17.03;12.70;;;;;;;;;;5072559;28;20230;-75
2021/09/05 06:44:42;;;;;;;16.87;11.63;;;;;;;;;;5073110;28;20198;-75
2021/09/05 06:47:46;;;;;;;15.60;11.17;;;;;;;;;;5072613;28;20200;-75
2021/09/05 06:50:50;;;;;;;14.50;11.33;;;;;;;;;;5058379;28;20218;-75
2021/09/05 06:53:54;;;;;;;15.57;11.13;;;;;;;;;;5072715;28;20168;-75
2021/09/05 06:56:58;;;;;;;14.53;10.43;;;;;;;;;;5072617;28;20210;-75
2021/09/05 07:00:04;;;;;;;14.30;9.70;;;;;;;;;;5072683;28;20192;-76
2021/09/05 07:03:08;;;;;;;12.30;8.97;;;;;;;;;;5059404;28;20183;-75
2021/09/05 07:06:12;;;;;;;12.27;9.23;;;;;;;;;;5072604;28;20187;-75
2021/09/05 07:09:17;;;;;;;12.63;9.00;;;;;;;;;;5072092;28;20741;-75
2021/09/05 07:12:21;;;;;;;15.73;10.00;;;;;;;;;;5059879;28;20685;-75
2021/09/05 07:15:25;;;;;;;16.13;9.57;;;;;;;;;;5059869;28;20196;-75
2021/09/05 07:18:29;;;;;;;12.90;8.83;;;;;;;;;;5059736;28;20199;-76
2021/09/05 07:21:33;;;;;;;14.13;9.30;;;;;;;;;;5071924;28;20214;-76
2021/09/05 07:24:38;;;;;;;12.50;8.83;;;;;;;;;;5071473;28;20183;-75
2021/09/05 07:27:42;;;;;;;10.50;8.50;;;;;;;;;;5071694;28;20191;-76
2021/09/05 07:30:46;;;;;;;12.37;8.87;;;;;;;;;;5059707;28;20219;-76
2021/09/05 07:33:50;;;;;;;11.47;9.20;;;;;;;;;;5047610;28;20191;-76
2021/09/05 07:36:55;;;;;;;10.60;9.10;;;;;;;;;;5048309;28;20184;-76
2021/09/05 07:39:59;;;;;;;14.20;9.47;;;;;;;;;;5072085;28;20515;-76
2021/09/05 07:43:03;;;;;;;12.97;9.00;;;;;;;;;;5059532;28;20531;-76
2021/09/05 07:46:07;;;;;;;12.50;8.87;;;;;;;;;;5071270;28;20203;-76
2021/09/05 07:49:11;;;;;;;10.30;8.03;;;;;;;;;;5051775;28;20180;-76
2021/09/05 07:52:15;;;;;;;9.90;8.13;;;;;;;;;;5051664;28;20575;-76
2021/09/05 07:55:20;;;;;;;9.90;7.47;;;;;;;;;;5059802;28;20341;-76
2021/09/05 07:58:25;;;;;;;10.40;7.70;;;;;;;;;;5058833;28;20176;-76
2021/09/05 08:01:29;;;;;;;10.77;7.87;;;;;;;;;;5071601;28;20211;-76
2021/09/05 08:04:34;;;;;;;9.73;8.13;;;;;;;;;;5071542;28;20213;-76
2021/09/05 08:07:38;;;;;;;12.73;7.83;;;;;;;;;;5058866;28;20183;-76
2021/09/05 08:10:42;;;;;;;10.20;7.40;;;;;;;;;;5070739;28;20532;-76
2021/09/05 08:13:46;;;;;;;20.67;8.43;;;;;;;;;;5071371;28;20179;-76
2021/09/05 08:16:51;;;;;;;9.63;7.30;;;;;;;;;;5070701;28;20195;-75
2021/09/05 08:19:55;;;;;;;9.90;6.40;;;;;;;;;;5068513;28;20655;-76
2021/09/05 08:22:59;;;;;;;12.37;6.60;;;;;;;;;;5057485;28;20183;-76
2021/09/05 08:26:05;;;;;;;8.93;6.20;;;;;;;;;;5050968;28;20207;-76
2021/09/05 08:29:10;;;;;;;8.97;6.03;;;;;;;;;;5065926;28;20190;-76
2021/09/05 08:32:14;;;;;;;8.10;6.37;;;;;;;;;;5067117;28;20250;-75
2021/09/05 08:35:18;;;;;;;10.80;6.60;;;;;;;;;;5069943;28;20203;-76
2021/09/05 08:38:22;;;;;;;9.47;6.57;;;;;;;;;;5078311;28;20186;-77
2021/09/05 08:41:26;;;;;;;7.50;6.00;;;;;;;;;;5070563;28;20563;-76
2021/09/05 08:44:31;;;;;;;20.63;6.70;;;;;;;;;;5071061;28;20175;-76
2021/09/05 08:47:35;;;;;;;13.50;6.50;;;;;;;;;;5038521;28;20184;-77
2021/09/05 08:50:40;;;;;;;10.13;5.57;;;;;;;;;;5038581;28;20201;-76
2021/09/05 08:53:44;;;;;;;10.13;5.20;;;;;;;;;;5061525;28;20217;-76
2021/09/05 08:56:50;;;;;;;7.93;5.20;;;;;;;;;;5070659;28;20210;-76
2021/09/05 08:59:55;;;;;;;8.33;5.73;;;;;;;;;;5058210;28;20187;-76
2021/09/05 09:03:00;;;;;;;7.33;5.33;;;;;;;;;;5069892;28;20191;-76
2021/09/05 09:06:05;;;;;;;8.93;4.97;;;;;;;;;;5070499;28;20199;-76
2021/09/05 09:09:10;;;;;;;5.95;4.78;;;;;;;;;;5070036;28;20197;-76
2021/09/05 09:12:14;;;;;;;7.15;5.40;;;;;;;;;;5069736;28;20229;-75
2021/09/05 09:15:18;;;;;;;5.65;4.78;;;;;;;;;;5069752;28;20190;-76
2021/09/05 09:18:25;;;;;;;5.60;4.97;;;;;;;;;;5058129;28;20189;-77
2021/09/05 09:21:37;;;;;;;8.25;4.95;;;;;;;;;;5071423;28;20221;-79
2021/09/05 09:24:42;;;;;;;6.15;4.50;;;;;;;;;;5072162;28;20187;-78
2021/09/05 09:27:47;;;;;;;6.95;4.20;;;;;;;;;;5072612;28;20184;-78
2021/09/05 09:30:51;;;;;;;6.22;5.10;;;;;;;;;;5059330;28;20213;-79
2021/09/05 09:33:57;;;;;;;7.65;4.82;;;;;;;;;;5075139;28;20217;-80
2021/09/05 09:37:01;;;;;;;7.32;4.38;;;;;;;;;;5081510;28;20660;-79
2021/09/05 09:40:06;;;;;;;6.30;3.90;;;;;;;;;;5059449;28;20640;-78
2021/09/05 09:43:22;;;;;;;7.10;4.43;;;;;;;;;;5051985;28;20176;-79
2021/09/05 09:46:28;;;;;;;4.50;4.00;;;;;;;;;;5052451;28;20192;-77
2021/09/05 09:49:49;;;;;;;6.35;4.40;;;;;;;;;;5043413;28;20188;-77
2021/09/05 09:52:54;;;;;;;4.38;3.75;;;;;;;;;;5083089;28;20203;-78
2021/09/05 09:55:59;;;;;;;5.13;4.18;;;;;;;;;;5075507;28;20214;-78
2021/09/05 09:59:07;;;;;;;10.75;4.72;;;;;;;;;;5075114;28;20227;-77
2021/09/05 10:02:17;;;;;;;5.43;4.25;;;;;;;;;;5076199;28;20220;-78
2021/09/05 10:05:21;;;;;;;9.60;3.95;;;;;;;;;;5061039;28;20198;-78
2021/09/05 10:08:27;;;;;;;6.20;4.53;;;;;;;;;;5073774;28;20187;-78
2021/09/05 10:11:36;;;;;;;7.03;4.00;;;;;;;;;;5058753;28;20222;-78
2021/09/05 10:14:42;;;;;;;5.38;4.22;;;;;;;;;;5072660;28;20188;-77
2021/09/05 10:17:47;;;;;;;8.65;4.40;;;;;;;;;;5075185;28;20186;-78
2021/09/05 10:20:51;;;;;;;10.57;4.13;;;;;;;;;;5064566;28;20212;-78
2021/09/05 10:23:57;;;;;;;6.43;4.07;;;;;;;;;;5041721;28;20181;-78
2021/09/05 10:27:05;;;;;;;13.73;5.40;;;;;;;;;;5073727;28;20195;-78
2021/09/05 10:30:10;;;;;;;6.95;4.50;;;;;;;;;;5041610;28;20193;-78
2021/09/05 10:33:30;;;;;;;6.25;4.40;;;;;;;;;;5042991;28;20208;-78
2021/09/05 10:36:43;;;;;;;6.15;4.47;;;;;;;;;;5069910;28;20200;-77
2021/09/05 10:40:06;;;;;;;12.45;3.80;;;;;;;;;;5074005;28;20196;-78
2021/09/05 10:43:10;;;;;;;5.35;4.50;;;;;;;;;;5061430;28;20184;-78
2021/09/05 10:46:17;;;;;;;4.93;4.43;;;;;;;;;;5061142;28;20655;-77
2021/09/05 10:49:39;;;;;;;7.00;4.07;;;;;;;;;;5073665;28;20203;-78
2021/09/05 10:52:46;;;;;;;19.35;5.03;;;;;;;;;;5075921;28;20219;-78
2021/09/05 10:56:08;;;;;;;4.60;4.10;;;;;;;;;;5091966;28;20207;-78
2021/09/05 10:59:22;;;;;;;4.63;4.10;;;;;;;;;;5069920;28;20176;-78
2021/09/05 11:02:25;;;;;;;5.68;4.22;;;;;;;;;;5083261;28;20219;-77
2021/09/05 11:05:30;;;;;;;6.88;3.70;;;;;;;;;;5073560;28;20203;-77
2021/09/05 11:08:34;;;;;;;6.53;4.32;;;;;;;;;;5065187;28;20204;-78
2021/09/05 11:12:10;;;;;;;5.57;4.07;;;;;;;;;;5082553;28;20219;-77
2021/09/05 11:15:18;;;;;;;6.65;4.30;;;;;;;;;;5073126;28;20188;-78
2021/09/05 11:18:22;;;;;;;8.00;4.20;;;;;;;;;;5083140;28;20200;-77
2021/09/05 11:21:28;;;;;;;7.13;4.43;;;;;;;;;;5082081;28;20219;-77
2021/09/05 11:24:33;;;;;;;4.28;3.88;;;;;;;;;;5074118;28;20180;-78
2021/09/05 11:27:46;;;;;;;7.30;4.57;;;;;;;;;;5070804;28;20187;-78
2021/09/05 11:30:59;;;;;;;20.40;4.25;;;;;;;;;;5063524;28;20223;-77
2021/09/05 11:34:07;;;;;;;4.57;4.07;;;;;;;;;;5068703;28;20647;-78
2021/09/05 11:37:12;;;;;;;5.68;3.70;;;;;;;;;;5072161;28;20531;-78
2021/09/05 11:40:19;;;;;;;4.85;4.20;;;;;;;;;;5083650;28;20186;-77
2021/09/05 11:43:35;;;;;;;5.07;4.00;;;;;;;;;;5072855;28;20183;-78
2021/09/05 11:46:46;;;;;;;5.65;4.28;;;;;;;;;;5083427;28;20184;-77
2021/09/05 11:49:55;;;;;;;7.05;4.28;;;;;;;;;;5053178;28;20664;-77
2021/09/05 11:53:00;;;;;;;7.05;4.10;;;;;;;;;;5068844;28;20211;-77
2021/09/05 11:56:04;;;;;;;6.75;4.30;;;;;;;;;;5085429;28;20206;-78
2021/09/05 11:59:11;;;;;;;7.15;3.95;;;;;;;;;;5087064;28;20213;-77
2021/09/05 12:02:29;;;;;;;5.45;4.05;;;;;;;;;;5083376;28;20227;-77
2021/09/05 12:05:35;;;;;;;8.30;4.30;;;;;;;;;;5080797;28;20203;-77
2021/09/05 12:08:43;;;;;;;4.38;3.97;;;;;;;;;;5056749;28;20642;-77
2021/09/05 12:12:03;;;;;;;5.82;4.63;;;;;;;;;;5040253;28;20224;-78
2021/09/05 12:15:13;;;;;;;5.10;4.55;;;;;;;;;;5078952;28;20658;-78
2021/09/05 12:18:22;;;;;;;4.88;3.90;;;;;;;;;;5064992;28;20176;-77
2021/09/05 12:21:33;;;;;;;5.30;4.18;;;;;;;;;;5070254;28;20216;-77
2021/09/05 12:24:38;;;;;;;7.20;4.68;;;;;;;;;;5065666;28;20544;-77
2021/09/05 12:27:55;;;;;;;8.13;4.70;;;;;;;;;;5069206;28;20175;-77
2021/09/05 12:31:02;;;;;;;7.80;4.18;;;;;;;;;;5079855;28;20216;-77
2021/09/05 12:34:08;;;;;;;14.05;4.95;;;;;;;;;;5080873;28;20682;-77
2021/09/05 12:37:21;;;;;;;5.00;4.13;;;;;;;;;;5089383;28;20188;-78
2021/09/05 12:40:36;;;;;;;4.63;4.18;;;;;;;;;;5056288;28;20188;-77
2021/09/05 12:43:44;;;;;;;6.60;4.50;;;;;;;;;;5081368;28;20192;-78
2021/09/05 12:46:49;;;;;;;4.85;4.25;;;;;;;;;;5068543;28;20191;-77
2021/09/05 12:49:56;;;;;;;6.65;4.25;;;;;;;;;;5082639;28;20191;-77
2021/09/05 12:53:16;;;;;;;6.30;4.50;;;;;;;;;;5080187;28;20524;-77
2021/09/05 12:56:24;;;;;;;5.65;4.32;;;;;;;;;;5069915;28;20216;-77
2021/09/05 12:59:28;;;;;;;5.45;4.18;;;;;;;;;;5055470;28;20199;-77
2021/09/05 13:02:32;;;;;;;5.57;4.03;;;;;;;;;;5089960;28;20225;-77
2021/09/05 13:05:37;;;;;;;5.28;3.90;;;;;;;;;;5092747;28;20174;-77
2021/09/05 13:08:41;;;;;;;6.22;3.88;;;;;;;;;;5065479;28;20194;-77
2021/09/05 13:11:48;;;;;;;6.32;4.03;;;;;;;;;;5080951;28;20221;-77
2021/09/05 13:14:53;;;;;;;5.80;4.13;;;;;;;;;;5083494;28;20206;-77
2021/09/05 13:17:59;;;;;;;5.43;4.20;;;;;;;;;;5045591;28;20188;-77
2021/09/05 13:21:07;;;;;;;6.22;4.25;;;;;;;;;;5085103;28;20211;-77
2021/09/05 13:24:12;;;;;;;5.78;4.30;;;;;;;;;;5081638;28;20630;-78
2021/09/05 13:27:17;;;;;;;6.72;4.45;;;;;;;;;;5060277;28;20298;-77
2021/09/05 13:30:23;;;;;;;5.70;4.57;;;;;;;;;;5073410;28;20203;-77
2021/09/05 13:33:28;;;;;;;4.95;4.22;;;;;;;;;;5074859;28;20218;-78
2021/09/05 13:36:32;;;;;;;21.33;5.00;;;;;;;;;;5084936;28;20186;-77
2021/09/05 13:39:38;;;;;;;6.55;4.18;;;;;;;;;;5076283;28;20189;-78
2021/09/05 13:42:43;;;;;;;4.30;3.90;;;;;;;;;;5078645;28;20214;-78
2021/09/05 13:45:49;;;;;;;6.03;4.57;;;;;;;;;;5089821;28;20183;-77
2021/09/05 13:48:54;;;;;;;8.45;4.40;;;;;;;;;;5066543;28;20181;-78
2021/09/05 13:51:58;;;;;;;7.90;4.03;;;;;;;;;;5088794;28;20213;-78
2021/09/05 13:55:05;;;;;;;8.95;4.38;;;;;;;;;;5075337;28;20207;-77
2021/09/05 13:58:10;;;;;;;7.47;4.25;;;;;;;;;;5076500;28;20189;-78
2021/09/05 14:01:14;;;;;;;5.10;4.15;;;;;;;;;;5080632;28;20215;-79
2021/09/05 14:04:19;;;;;;;4.20;3.58;;;;;;;;;;5066336;28;20181;-78
2021/09/05 14:07:23;;;;;;;10.38;4.88;;;;;;;;;;5068298;28;20187;-76
2021/09/05 14:10:28;;;;;;;6.07;4.40;;;;;;;;;;5072027;28;20199;-77
2021/09/05 14:13:36;;;;;;;7.30;4.03;;;;;;;;;;5062951;28;20217;-77
2021/09/05 14:16:40;;;;;;;7.97;4.05;;;;;;;;;;5049691;28;20191;-77
2021/09/05 14:19:45;;;;;;;10.10;3.90;;;;;;;;;;5071357;28;20194;-77
2021/09/05 14:22:50;;;;;;;4.95;4.05;;;;;;;;;;5084711;28;20206;-78
2021/09/05 14:25:56;;;;;;;5.20;4.00;;;;;;;;;;5073603;28;20660;-78
2021/09/05 14:29:06;;;;;;;5.07;3.85;;;;;;;;;;5052666;28;20183;-78
2021/09/05 14:37:32;;;;;;;4.22;3.60;;;;;;;;;;5068146;28;20184;-77
2021/09/05 14:49:14;;;;;;;5.85;3.97;;;;;;;;;;5073765;28;20626;-80
2021/09/05 14:55:44;;;;;;;5.40;3.65;;;;;;;;;;5063308;28;20207;-78
2021/09/05 15:02:03;;;;;;;5.72;4.30;;;;;;;;;;5074107;28;20210;-78
2021/09/05 15:11:57;;;;;;;5.47;4.13;;;;;;;;;;5086418;28;20217;-78
2021/09/05 15:15:02;;;;;;;7.40;4.45;;;;;;;;;;5070918;28;20216;-78
2021/09/05 15:18:06;;;;;;;5.07;3.78;;;;;;;;;;5069604;28;20201;-77
2021/09/05 15:21:13;;;;;;;4.35;3.85;;;;;;;;;;5082744;28;20217;-77
2021/09/05 15:24:19;;;;;;;4.32;3.92;;;;;;;;;;5070226;28;20195;-78
2021/09/05 15:27:27;;;;;;;5.65;4.03;;;;;;;;;;5079864;28;20205;-77
2021/09/05 15:50:52;;;;;;;5.82;4.82;;;;;;;;;;5071387;28;20221;-77
2021/09/05 15:57:09;;;;;;;172.35;122.78;;;;;;;;;;5062610;28;20208;-78
2021/09/05 16:00:28;;;;;;;19.40;14.27;;;;;;;;;;5073355;28;20202;-76
2021/09/05 16:03:41;;;;;;;18.03;15.27;;;;;;;;;;5074611;28;20662;-77
2021/09/05 16:16:54;;;;;;;358.53;295.47;;;;;;;;;;5061785;28;20557;-77
2021/09/05 16:19:59;;;;;;;253.60;204.83;;;;;;;;;;5062417;28;20206;-77
2021/09/05 16:23:03;;;;;;;1999.90;999.90;;;;;;;;;;5065415;28;20199;-77
2021/09/05 16:26:08;;;;;;;547.77;414.47;;;;;;;;;;5062401;28;20202;-77
2021/09/05 16:29:19;;;;;;;610.50;499.00;;;;;;;;;;5062561;28;20271;-77
2021/09/05 16:42:33;;;;;;;10.60;6.73;;;;;;;;;;5061740;28;20228;-77
2021/09/05 16:45:37;;;;;;;10.20;4.50;;;;;;;;;;5075001;28;20202;-77
2021/09/05 16:48:43;;;;;;;7.03;4.87;;;;;;;;;;5043588;28;20200;-77
2021/09/05 16:51:48;;;;;;;10.40;5.33;;;;;;;;;;5050120;28;20254;-77
2021/09/05 16:54:52;;;;;;;9.80;5.13;;;;;;;;;;5053496;28;20220;-77
2021/09/05 16:57:56;;;;;;;8.17;5.17;;;;;;;;;;5057556;28;20195;-77
2021/09/05 17:01:03;;;;;;;27.97;6.03;;;;;;;;;;5055189;28;20689;-77
2021/09/05 17:04:07;;;;;;;21.67;6.13;;;;;;;;;;5076417;28;20192;-77
2021/09/05 17:07:12;;;;;;;11.13;5.87;;;;;;;;;;5077223;28;20191;-77
2021/09/05 17:10:16;;;;;;;7.30;5.07;;;;;;;;;;5074448;28;20191;-76
2021/09/05 17:13:22;;;;;;;8.80;6.30;;;;;;;;;;5032501;28;20203;-77
2021/09/05 17:16:26;;;;;;;12.30;5.87;;;;;;;;;;5049179;28;20183;-77
2021/09/05 17:19:31;;;;;;;12.73;5.63;;;;;;;;;;5057086;28;20531;-76
2021/09/05 17:22:35;;;;;;;14.87;6.00;;;;;;;;;;5073677;28;20219;-77
2021/09/05 17:25:40;;;;;;;10.47;5.53;;;;;;;;;;5074017;28;20183;-77
2021/09/05 17:28:44;;;;;;;9.73;4.80;;;;;;;;;;5061151;28;20203;-77
2021/09/05 17:31:50;;;;;;;14.17;5.77;;;;;;;;;;5074018;28;20226;-77
2021/09/05 17:34:54;;;;;;;26.37;6.57;;;;;;;;;;5060900;28;20207;-77
2021/09/05 17:38:00;;;;;;;17.90;4.87;;;;;;;;;;5042841;28;20180;-77
2021/09/05 17:41:04;;;;;;;7.40;4.40;;;;;;;;;;5073271;28;20223;-76
2021/09/05 17:44:09;;;;;;;7.70;4.30;;;;;;;;;;5047543;28;20195;-79
2021/09/05 17:47:13;;;;;;;5.80;4.27;;;;;;;;;;5073774;28;20658;-77
2021/09/05 17:50:20;;;;;;;9.00;4.83;;;;;;;;;;5059056;28;20191;-77
2021/09/05 17:53:24;;;;;;;6.03;4.70;;;;;;;;;;5074940;28;20195;-77
2021/09/05 17:56:29;;;;;;;6.23;4.90;;;;;;;;;;5062449;28;20223;-77
2021/09/05 17:59:34;;;;;;;6.13;4.77;;;;;;;;;;5075520;28;20515;-77
2021/09/05 18:02:39;;;;;;;9.40;4.30;;;;;;;;;;5051254;28;20223;-77
2021/09/05 18:05:44;;;;;;;6.03;4.80;;;;;;;;;;5043872;28;20188;-77
2021/09/05 18:08:48;;;;;;;6.53;4.70;;;;;;;;;;5038134;28;20176;-76
2021/09/05 18:11:52;;;;;;;11.13;4.77;;;;;;;;;;5055422;28;20219;-77
2021/09/05 18:14:57;;;;;;;6.57;4.93;;;;;;;;;;5049296;28;20207;-77
2021/09/05 18:18:02;;;;;;;7.13;4.57;;;;;;;;;;5037857;28;20687;-77
2021/09/05 18:21:07;;;;;;;5.60;4.50;;;;;;;;;;5026238;28;20220;-76
2021/09/05 18:24:14;;;;;;;7.80;4.97;;;;;;;;;;5048897;28;20207;-75
2021/09/05 18:27:19;;;;;;;9.53;5.43;;;;;;;;;;5048932;28;20176;-74
2021/09/05 18:30:24;;;;;;;10.70;5.60;;;;;;;;;;5049408;28;20180;-74
2021/09/05 18:33:28;;;;;;;9.47;5.60;;;;;;;;;;5049673;28;20192;-75
2021/09/05 18:36:36;;;;;;;9.63;5.37;;;;;;;;;;5048905;28;20208;-75
2021/09/05 18:39:42;;;;;;;9.03;5.60;;;;;;;;;;5049559;28;20203;-75
2021/09/05 18:42:46;;;;;;;7.50;5.77;;;;;;;;;;5049020;28;20220;-74
2021/09/05 18:45:51;;;;;;;7.57;5.53;;;;;;;;;;5049581;28;20176;-74
2021/09/05 18:48:56;;;;;;;20.73;5.77;;;;;;;;;;5049870;28;20184;-74
2021/09/05 18:52:00;;;;;;;10.63;5.70;;;;;;;;;;5037175;28;20219;-74
2021/09/05 18:55:05;;;;;;;22.07;6.13;;;;;;;;;;5048039;28;20229;-74
2021/09/05 18:58:10;;;;;;;11.13;5.77;;;;;;;;;;5049692;28;20768;-74
2021/09/05 19:01:15;;;;;;;9.73;5.90;;;;;;;;;;5037105;28;20224;-74
2021/09/05 19:04:21;;;;;;;8.20;5.93;;;;;;;;;;5037093;28;20176;-74
2021/09/05 19:07:27;;;;;;;7.30;5.70;;;;;;;;;;5048990;28;20528;-74
2021/09/05 19:10:31;;;;;;;10.77;6.30;;;;;;;;;;5048609;28;20181;-76
2021/09/05 19:13:36;;;;;;;9.20;6.17;;;;;;;;;;5049250;28;20176;-74
2021/09/05 19:16:43;;;;;;;8.47;5.27;;;;;;;;;;5048989;28;20208;-74
2021/09/05 19:19:47;;;;;;;7.50;5.77;;;;;;;;;;5065987;28;20202;-74
2021/09/05 19:22:52;;;;;;;8.83;6.13;;;;;;;;;;5078595;28;20195;-74
2021/09/05 19:26:00;;;;;;;8.83;5.90;;;;;;;;;;5052507;28;20177;-76
2021/09/05 19:29:04;;;;;;;7.23;5.10;;;;;;;;;;5068519;28;20195;-74
2021/09/05 19:32:09;;;;;;;9.63;6.40;;;;;;;;;;5071093;28;20218;-73
2021/09/05 19:35:16;;;;;;;9.00;5.97;;;;;;;;;;5071813;28;20211;-73
2021/09/05 19:38:21;;;;;;;9.47;5.73;;;;;;;;;;5070775;28;20184;-75
2021/09/05 19:41:26;;;;;;;8.10;5.63;;;;;;;;;;5071560;28;20210;-75
2021/09/05 19:44:31;;;;;;;6.77;5.90;;;;;;;;;;5069210;28;20191;-75
2021/09/05 19:47:36;;;;;;;7.60;5.50;;;;;;;;;;5071778;28;20527;-74
2021/09/05 19:50:40;;;;;;;8.53;5.83;;;;;;;;;;5057284;28;20191;-75
2021/09/05 19:53:44;;;;;;;16.50;7.10;;;;;;;;;;5057449;28;20516;-74
2021/09/05 19:56:48;;;;;;;19.83;6.70;;;;;;;;;;5070956;28;20222;-75